Time;durP1;ratioP1;P1;durP2;ratioP2;P2;SDS_P1;SDS_P2;PMS_P1;PMS_P2;Temp;Humidity;BMP_temperature;BMP_pressure;BME280_temperature;BME280_humidity;BME280_pressure;Samples;Min_cycle;Max_cycle;Signal;HPM_P1;HPM_P2
2024/04/05 00:01:55;;;;;;;31.00;4.47;;;;;;;-146.04;100.00;56920.13;4928763;29;20243;-71
2024/04/05 00:04:20;;;;;;;26.90;5.70;;;;;;;-146.04;100.00;56920.13;4929332;29;20227;-71
2024/04/05 00:06:46;;;;;;;19.65;3.50;;;;;;;-146.04;100.00;56920.13;4927815;29;20182;-71
2024/04/05 00:09:11;;;;;;;20.85;4.15;;;;;;;-146.04;100.00;56920.13;4933192;29;20680;-71
2024/04/05 00:11:36;;;;;;;22.30;5.03;;;;;;;-146.04;100.00;56920.13;4933290;29;20217;-71
2024/04/05 00:14:02;;;;;;;26.25;5.07;;;;;;;-146.04;100.00;56920.13;4923390;29;20190;-71
2024/04/05 00:16:28;;;;;;;19.73;3.17;;;;;;;-146.04;100.00;56920.13;4928260;29;20299;-71
2024/04/05 00:18:55;;;;;;;16.83;4.55;;;;;;;-146.04;100.00;56920.13;4934022;29;20579;-71
2024/04/05 00:21:20;;;;;;;24.55;4.88;;;;;;;-146.04;100.00;56920.13;4933260;29;20178;-71
2024/04/05 00:23:45;;;;;;;19.55;4.38;;;;;;;-146.04;100.00;56920.13;4927934;29;20190;-71
2024/04/05 00:26:11;;;;;;;16.92;4.90;;;;;;;-146.04;100.00;56920.13;4926835;29;20178;-71
2024/04/05 00:28:36;;;;;;;14.30;3.58;;;;;;;-146.04;100.00;56920.13;4927156;29;20691;-71
2024/04/05 00:31:03;;;;;;;23.35;4.55;;;;;;;-146.04;100.00;56920.13;4929987;29;20685;-71
2024/04/05 00:33:29;;;;;;;22.52;4.07;;;;;;;-146.04;100.00;56920.13;4942504;28;20269;-71
2024/04/05 00:35:56;;;;;;;18.58;3.88;;;;;;;-146.04;100.00;56920.13;4926565;29;20214;-71
2024/04/05 00:38:23;;;;;;;18.58;5.47;;;;;;;-146.04;100.00;56920.13;4930574;29;20192;-71
2024/04/05 00:40:49;;;;;;;16.83;4.85;;;;;;;-146.04;100.00;56920.13;4932873;29;20715;-71
2024/04/05 00:43:15;;;;;;;17.88;3.72;;;;;;;-146.04;100.00;56920.13;4925045;29;20224;-70
2024/04/05 00:45:45;;;;;;;18.88;3.50;;;;;;;-146.04;100.00;56920.13;4925699;29;20182;-70
2024/04/05 00:48:10;;;;;;;20.05;3.83;;;;;;;-146.04;100.00;56920.13;4931456;29;20193;-71
2024/04/05 00:50:36;;;;;;;18.48;3.80;;;;;;;-146.04;100.00;56920.13;4927415;29;20189;-71
2024/04/05 00:53:02;;;;;;;15.82;3.45;;;;;;;-146.04;100.00;56920.13;4930188;29;20723;-71
2024/04/05 00:55:29;;;;;;;14.35;4.03;;;;;;;-146.04;100.00;56920.13;4922768;29;20216;-71
2024/04/05 00:57:59;;;;;;;17.80;4.13;;;;;;;-146.04;100.00;56920.13;4933213;29;20267;-71
2024/04/05 01:00:25;;;;;;;15.23;3.50;;;;;;;-146.04;100.00;56920.13;4928568;29;20182;-71
2024/04/05 01:02:50;;;;;;;15.32;3.92;;;;;;;-146.04;100.00;56920.13;4926479;29;20727;-71
2024/04/05 01:05:16;;;;;;;15.98;3.95;;;;;;;-146.04;100.00;56920.13;4926440;29;20648;-70
2024/04/05 01:07:42;;;;;;;23.73;4.50;;;;;;;-146.04;100.00;56920.13;4921535;29;20684;-71
2024/04/05 01:10:07;;;;;;;13.85;3.88;;;;;;;-146.04;100.00;56920.13;4925551;29;20333;-71
2024/04/05 01:12:33;;;;;;;26.80;5.60;;;;;;;-146.04;100.00;56920.13;4925604;29;20303;-70
2024/04/05 01:14:58;;;;;;;33.35;6.28;;;;;;;-146.04;100.00;56920.13;4926780;29;20181;-70
2024/04/05 01:17:23;;;;;;;19.45;5.05;;;;;;;-146.04;100.00;56920.13;4929561;29;20202;-71
2024/04/05 01:19:51;;;;;;;24.67;5.07;;;;;;;-146.04;100.00;56920.13;4931646;29;20193;-71
2024/04/05 01:24:44;;;;;;;20.73;4.70;;;;;;;-146.04;100.00;56920.13;4911824;29;20218;-68
2024/04/05 01:27:09;;;;;;;23.05;4.95;;;;;;;-146.04;100.00;56920.13;4907584;29;20680;-68
2024/04/05 01:29:35;;;;;;;15.80;4.63;;;;;;;-146.04;100.00;56920.13;4912504;29;20186;-69
2024/04/05 01:32:00;;;;;;;14.55;4.85;;;;;;;-146.04;100.00;56920.13;4915314;29;20214;-70
2024/04/05 01:34:25;;;;;;;17.25;4.68;;;;;;;-146.04;100.00;56920.13;4910330;29;20639;-68
2024/04/05 01:36:50;;;;;;;17.17;3.88;;;;;;;-146.04;100.00;56920.13;4911495;29;20673;-69
2024/04/05 01:39:16;;;;;;;20.85;3.63;;;;;;;-146.04;100.00;56920.13;4915849;29;20205;-68
2024/04/05 01:41:41;;;;;;;16.85;4.65;;;;;;;-146.04;100.00;56920.13;4915630;29;20188;-69
2024/04/05 01:44:06;;;;;;;18.38;5.45;;;;;;;-146.04;100.00;56920.13;4917485;29;20202;-68
2024/04/05 01:46:32;;;;;;;24.00;5.40;;;;;;;-146.04;100.00;56920.13;4908243;29;20265;-68
2024/04/05 01:48:57;;;;;;;15.27;4.75;;;;;;;-146.04;100.00;56920.13;4916611;29;20190;-68
2024/04/05 01:51:22;;;;;;;23.25;4.00;;;;;;;-146.04;100.00;56920.13;4914139;29;20257;-68
2024/04/05 01:53:48;;;;;;;22.48;4.22;;;;;;;-146.04;100.00;56920.13;4909465;29;20642;-68
2024/04/05 01:56:13;;;;;;;26.63;5.85;;;;;;;-146.04;100.00;56920.13;4916855;29;20217;-68
2024/04/05 01:58:38;;;;;;;18.60;4.25;;;;;;;-146.04;100.00;56920.13;4916996;29;20196;-67
2024/04/05 02:01:04;;;;;;;17.05;5.18;;;;;;;-146.04;100.00;56920.13;4915099;29;20208;-70
2024/04/05 02:03:29;;;;;;;28.65;4.78;;;;;;;-146.04;100.00;56920.13;4919173;29;20213;-69
2024/04/05 02:05:55;;;;;;;15.90;4.53;;;;;;;-146.04;100.00;56920.13;4908237;29;20186;-69
2024/04/05 02:08:20;;;;;;;23.58;4.82;;;;;;;-146.04;100.00;56920.13;4912739;29;20236;-69
2024/04/05 02:10:46;;;;;;;27.52;6.20;;;;;;;-146.04;100.00;56920.13;4913084;29;20182;-67
2024/04/05 02:13:12;;;;;;;23.67;5.80;;;;;;;-146.04;100.00;56920.13;4914734;29;20217;-67
2024/04/05 02:15:38;;;;;;;19.98;5.30;;;;;;;-146.04;100.00;56920.13;4912688;29;20206;-68
2024/04/05 02:18:08;;;;;;;18.88;4.18;;;;;;;-146.04;100.00;56920.13;4914555;29;20181;-68
2024/04/05 02:20:34;;;;;;;22.08;4.18;;;;;;;-146.04;100.00;56920.13;4917688;29;20416;-68
2024/04/05 02:22:59;;;;;;;18.65;6.30;;;;;;;-146.04;100.00;56920.13;4914722;29;20225;-68
2024/04/05 02:25:25;;;;;;;21.15;4.93;;;;;;;-146.04;100.00;56920.13;4917968;29;20190;-69
2024/04/05 02:27:51;;;;;;;18.05;4.50;;;;;;;-146.04;100.00;56920.13;4916870;29;20182;-69
2024/04/05 02:30:16;;;;;;;14.77;3.70;;;;;;;-146.04;100.00;56920.13;4925497;29;20200;-69
2024/04/05 02:32:41;;;;;;;12.40;4.22;;;;;;;-146.04;100.00;56920.13;4921418;29;20202;-68
2024/04/05 02:35:07;;;;;;;20.00;5.22;;;;;;;-146.04;100.00;56920.13;4914527;29;20209;-69
2024/04/05 02:37:32;;;;;;;19.45;4.97;;;;;;;-146.04;100.00;56920.13;4919143;29;20212;-69
2024/04/05 02:39:58;;;;;;;30.60;5.90;;;;;;;-146.04;100.00;56920.13;4913618;29;20178;-68
2024/04/05 02:42:23;;;;;;;27.05;5.95;;;;;;;-146.04;100.00;56920.13;4913427;29;20690;-68
2024/04/05 02:44:48;;;;;;;20.20;5.20;;;;;;;-146.04;100.00;56920.13;4916667;29;20194;-68
2024/04/05 02:47:14;;;;;;;17.88;4.05;;;;;;;-146.04;100.00;56920.13;4915464;29;20190;-68
2024/04/05 02:49:39;;;;;;;10.57;3.38;;;;;;;-146.04;100.00;56920.13;4922521;29;20190;-67
2024/04/05 02:52:05;;;;;;;14.02;3.83;;;;;;;-146.04;100.00;56920.13;4917383;29;20240;-68
2024/04/05 02:54:32;;;;;;;16.88;4.68;;;;;;;-146.04;100.00;56920.13;4917952;29;20281;-67
2024/04/05 02:56:57;;;;;;;15.75;4.72;;;;;;;-146.04;100.00;56920.13;4911908;29;20676;-67
2024/04/05 02:59:22;;;;;;;21.15;4.82;;;;;;;-146.04;100.00;56920.13;4913259;29;20177;-68
2024/04/05 03:01:48;;;;;;;17.98;3.80;;;;;;;-146.04;100.00;56920.13;4914526;29;20210;-68
2024/04/05 03:04:13;;;;;;;19.27;3.70;;;;;;;-146.04;100.00;56920.13;4919901;29;20236;-68
2024/04/05 03:06:38;;;;;;;14.13;4.57;;;;;;;-146.04;100.00;56920.13;4920977;29;20756;-67
2024/04/05 03:09:03;;;;;;;21.75;4.85;;;;;;;-146.04;100.00;56920.13;4921728;29;20186;-68
2024/04/05 03:11:29;;;;;;;16.95;4.63;;;;;;;-146.04;100.00;56920.13;4919447;29;20189;-67
2024/04/05 03:13:54;;;;;;;20.75;4.50;;;;;;;-146.04;100.00;56920.13;4919823;29;20182;-67
2024/04/05 03:16:20;;;;;;;20.35;4.32;;;;;;;-146.04;100.00;56920.13;4909803;29;20305;-68
2024/04/05 03:18:45;;;;;;;18.63;5.35;;;;;;;-146.04;100.00;56920.13;4910567;29;20203;-68
2024/04/05 03:21:11;;;;;;;24.75;4.13;;;;;;;-146.04;100.00;56920.13;4920626;29;20189;-69
2024/04/05 03:23:36;;;;;;;23.88;4.78;;;;;;;-146.04;100.00;56920.13;4918987;29;20431;-69
2024/04/05 03:26:02;;;;;;;13.93;4.15;;;;;;;-146.04;100.00;56920.13;4923516;29;20186;-68
2024/04/05 03:28:27;;;;;;;16.98;4.07;;;;;;;-146.04;100.00;56920.13;4919413;29;20189;-66
2024/04/05 03:30:52;;;;;;;20.38;5.47;;;;;;;-146.04;100.00;56920.13;4923306;29;20182;-68
2024/04/05 03:33:18;;;;;;;15.90;4.53;;;;;;;-146.04;100.00;56920.13;4925149;29;20290;-68
2024/04/05 03:35:43;;;;;;;22.70;5.20;;;;;;;-146.04;100.00;56920.13;4913794;29;20234;-68
2024/04/05 03:38:09;;;;;;;23.13;4.68;;;;;;;-146.04;100.00;56920.13;4912333;29;20249;-67
2024/04/05 03:40:41;;;;;;;9.93;4.32;;;;;;;-146.04;100.00;56920.13;4924318;29;20225;-67
2024/04/05 03:43:07;;;;;;;18.08;5.25;;;;;;;-146.04;100.00;56920.13;4913577;29;20214;-67
2024/04/05 03:45:32;;;;;;;16.35;4.03;;;;;;;-146.04;100.00;56920.13;4927244;29;20646;-68
2024/04/05 03:47:58;;;;;;;23.63;4.68;;;;;;;-146.04;100.00;56920.13;4920101;29;20194;-69
2024/04/05 03:50:23;;;;;;;18.08;4.35;;;;;;;-146.04;100.00;56920.13;4923887;29;20193;-68
2024/04/05 03:52:48;;;;;;;19.08;4.38;;;;;;;-146.04;100.00;56920.13;4915283;29;20210;-68
2024/04/05 03:55:14;;;;;;;18.05;3.92;;;;;;;-146.04;100.00;56920.13;4927896;29;20193;-69
2024/04/05 03:57:42;;;;;;;16.15;4.40;;;;;;;-146.04;100.00;56920.13;4914277;29;20829;-68
2024/04/05 04:00:08;;;;;;;21.63;5.28;;;;;;;-146.04;100.00;56920.13;4919721;29;20236;-68
2024/04/05 04:02:34;;;;;;;12.65;4.20;;;;;;;-146.04;100.00;56920.13;4906940;29;20202;-68
2024/04/05 04:04:59;;;;;;;14.65;3.58;;;;;;;-146.04;100.00;56920.13;4914720;29;20245;-67
2024/04/05 04:07:24;;;;;;;21.13;4.68;;;;;;;-146.04;100.00;56920.13;4914242;29;20185;-69
2024/04/05 04:09:50;;;;;;;18.33;5.30;;;;;;;-146.04;100.00;56920.13;4920162;29;20190;-69
2024/04/05 04:12:15;;;;;;;13.18;4.18;;;;;;;-146.04;100.00;56920.13;4919509;29;20681;-69
2024/04/05 04:14:41;;;;;;;16.27;4.00;;;;;;;-146.04;100.00;56920.13;4915096;29;20270;-69
2024/04/05 04:17:06;;;;;;;19.08;5.00;;;;;;;-146.04;100.00;56920.13;4918181;29;20257;-69
2024/04/05 04:19:32;;;;;;;14.32;4.47;;;;;;;-146.04;100.00;56920.13;4919131;29;20183;-67
2024/04/05 04:21:57;;;;;;;13.73;4.82;;;;;;;-146.04;100.00;56920.13;4916796;29;20225;-69
2024/04/05 04:24:23;;;;;;;15.73;4.43;;;;;;;-146.04;100.00;56920.13;4925336;29;20706;-69
2024/04/05 04:26:48;;;;;;;12.45;3.53;;;;;;;-146.04;100.00;56920.13;4907118;29;20182;-69
2024/04/05 04:29:13;;;;;;;16.63;4.53;;;;;;;-146.04;100.00;56920.13;4913649;29;20188;-69
2024/04/05 04:31:39;;;;;;;15.00;4.75;;;;;;;-146.04;100.00;56920.13;4915553;29;20670;-68
2024/04/05 04:34:05;;;;;;;12.95;4.20;;;;;;;-146.04;100.00;56920.13;4918290;29;20530;-69
2024/04/05 04:36:30;;;;;;;18.60;5.18;;;;;;;-146.04;100.00;56920.13;4914216;29;20670;-69
2024/04/05 04:38:55;;;;;;;15.32;4.05;;;;;;;-146.04;100.00;56920.13;4921520;29;20224;-69
2024/04/05 04:41:21;;;;;;;19.67;4.45;;;;;;;-146.04;100.00;56920.13;4914086;29;20277;-68
2024/04/05 04:43:46;;;;;;;14.27;4.88;;;;;;;-146.04;100.00;56920.13;4914357;29;20807;-69
2024/04/05 04:46:12;;;;;;;18.50;5.53;;;;;;;-146.04;100.00;56920.13;4912953;29;20214;-67
2024/04/05 04:48:38;;;;;;;11.45;3.95;;;;;;;-146.04;100.00;56920.13;4914023;29;20185;-68
2024/04/05 04:51:04;;;;;;;15.60;4.32;;;;;;;-146.04;100.00;56920.13;4909935;29;20190;-68
2024/04/05 04:53:30;;;;;;;14.23;3.50;;;;;;;-146.04;100.00;56920.13;4918209;29;20276;-67
2024/04/05 04:55:55;;;;;;;17.55;4.63;;;;;;;-146.04;100.00;56920.13;4912594;29;20282;-69
2024/04/05 04:58:23;;;;;;;20.30;5.05;;;;;;;-146.04;100.00;56920.13;4914934;29;20182;-68
2024/04/05 05:00:49;;;;;;;19.00;4.13;;;;;;;-146.04;100.00;56920.13;4922081;29;20254;-68
2024/04/05 05:03:14;;;;;;;13.38;4.55;;;;;;;-146.04;100.00;56920.13;4921220;29;20206;-69
2024/04/05 05:05:40;;;;;;;14.82;4.30;;;;;;;-146.04;100.00;56920.13;4912375;29;20194;-68
2024/04/05 05:08:07;;;;;;;18.20;4.45;;;;;;;-146.04;100.00;56920.13;4904817;29;20194;-68
2024/04/05 05:10:32;;;;;;;20.50;4.22;;;;;;;-146.04;100.00;56920.13;4914579;29;20182;-68
2024/04/05 05:13:01;;;;;;;12.75;4.15;;;;;;;-146.04;100.00;56920.13;4920375;29;20821;-68
2024/04/05 05:15:27;;;;;;;14.15;4.65;;;;;;;-146.04;100.00;56920.13;4913862;29;20685;-68
2024/04/05 05:17:52;;;;;;;10.50;3.45;;;;;;;-146.04;100.00;56920.13;4908736;29;20277;-68
2024/04/05 05:20:22;;;;;;;12.93;4.07;;;;;;;-146.04;100.00;56920.13;4919936;29;20272;-67
2024/04/05 05:22:48;;;;;;;18.88;5.13;;;;;;;-146.04;100.00;56920.13;4913385;29;20241;-66
2024/04/05 05:25:14;;;;;;;15.85;3.63;;;;;;;-146.04;100.00;56920.13;4919241;29;20205;-68
2024/04/05 05:27:40;;;;;;;14.45;3.30;;;;;;;-146.04;100.00;56920.13;4901523;29;20186;-68
2024/04/05 05:30:05;;;;;;;17.55;3.90;;;;;;;-146.04;100.00;56920.13;4920166;29;20178;-68
2024/04/05 05:32:31;;;;;;;16.65;5.38;;;;;;;-146.04;100.00;56920.13;4915437;29;20201;-68
2024/04/05 05:34:56;;;;;;;20.63;5.75;;;;;;;-146.04;100.00;56920.13;4919586;29;20206;-68
2024/04/05 05:37:21;;;;;;;15.73;4.90;;;;;;;-146.04;100.00;56920.13;4916514;29;20732;-68
2024/04/05 05:39:47;;;;;;;18.95;4.53;;;;;;;-146.04;100.00;56920.13;4917331;29;20194;-69
2024/04/05 05:42:13;;;;;;;14.55;4.65;;;;;;;-146.04;100.00;56920.13;4914097;29;20706;-67
2024/04/05 05:44:38;;;;;;;16.88;3.70;;;;;;;-146.04;100.00;56920.13;4910922;29;20193;-68
2024/04/05 05:47:04;;;;;;;11.38;3.67;;;;;;;-146.04;100.00;56920.13;4912486;29;20186;-68
2024/04/05 05:49:29;;;;;;;18.23;5.40;;;;;;;-146.04;100.00;56920.13;4916899;29;20560;-68
2024/04/05 05:51:54;;;;;;;16.90;4.10;;;;;;;-146.04;100.00;56920.13;4912991;29;20214;-68
2024/04/05 05:54:20;;;;;;;19.30;4.97;;;;;;;-146.04;100.00;56920.13;4914694;29;20186;-68
2024/04/05 05:56:45;;;;;;;13.77;4.03;;;;;;;-146.04;100.00;56920.13;4914285;29;20216;-67
2024/04/05 05:59:10;;;;;;;14.73;4.57;;;;;;;-146.04;100.00;56920.13;4913089;29;20185;-69
2024/04/05 06:01:36;;;;;;;13.93;3.55;;;;;;;-146.04;100.00;56920.13;4903704;29;20297;-68
2024/04/05 06:04:03;;;;;;;13.63;3.63;;;;;;;-146.04;100.00;56920.13;4918684;29;20189;-68
2024/04/05 06:06:28;;;;;;;21.83;4.57;;;;;;;-146.04;100.00;56920.13;4908722;29;20182;-69
2024/04/05 06:08:54;;;;;;;10.57;4.55;;;;;;;-146.04;100.00;56920.13;4916136;29;20197;-68
2024/04/05 06:11:19;;;;;;;7.07;3.28;;;;;;;-146.04;100.00;56920.13;4915090;29;20194;-68
2024/04/05 06:13:44;;;;;;;12.98;3.40;;;;;;;-146.04;100.00;56920.13;4913057;29;20696;-69
2024/04/05 06:16:10;;;;;;;17.65;4.22;;;;;;;-146.04;100.00;56920.13;4909448;29;20678;-69
2024/04/05 06:18:35;;;;;;;14.23;3.90;;;;;;;-146.04;100.00;56920.13;4904691;29;20567;-68
2024/04/05 06:21:00;;;;;;;12.15;4.18;;;;;;;-146.04;100.00;56920.13;4914172;29;20677;-68
2024/04/05 06:23:26;;;;;;;16.08;3.92;;;;;;;-146.04;100.00;56920.13;4919347;29;20221;-70
2024/04/05 06:25:58;;;;;;;11.48;3.78;;;;;;;-146.04;100.00;56920.13;4907031;29;20186;-69
2024/04/05 06:28:24;;;;;;;11.85;3.90;;;;;;;-146.04;100.00;56920.13;4912244;29;20251;-69
2024/04/05 06:30:49;;;;;;;10.75;4.32;;;;;;;-146.04;100.00;56920.13;4906419;29;20194;-67
2024/04/05 06:33:15;;;;;;;12.10;3.88;;;;;;;-146.04;100.00;56920.13;4906452;29;20320;-67
2024/04/05 06:35:41;;;;;;;11.75;4.10;;;;;;;-146.04;100.00;56920.13;4903428;29;20839;-69
2024/04/05 06:38:07;;;;;;;14.05;4.60;;;;;;;-146.04;100.00;56920.13;4905618;29;20221;-70
2024/04/05 06:40:33;;;;;;;9.98;3.63;;;;;;;-146.04;100.00;56920.13;4908539;29;20194;-69
2024/04/05 06:42:58;;;;;;;11.20;4.00;;;;;;;-146.04;100.00;56920.13;4906461;29;20721;-69
2024/04/05 06:45:24;;;;;;;10.32;3.90;;;;;;;-146.04;100.00;56920.13;4906071;29;20853;-69
2024/04/05 06:47:49;;;;;;;10.45;3.85;;;;;;;-146.04;100.00;56920.13;4910298;29;20201;-68
2024/04/05 06:50:15;;;;;;;15.02;3.90;;;;;;;-146.04;100.00;56920.13;4906589;29;20183;-69
2024/04/05 06:52:40;;;;;;;12.32;4.32;;;;;;;-146.04;100.00;56920.13;4906709;29;20269;-69
2024/04/05 06:55:06;;;;;;;9.02;3.58;;;;;;;-146.04;100.00;56920.13;4902159;29;20496;-69
2024/04/05 06:57:31;;;;;;;15.63;4.13;;;;;;;-146.04;100.00;56920.13;4905467;29;20222;-69
2024/04/05 06:59:56;;;;;;;9.55;3.00;;;;;;;-146.04;100.00;56920.13;4905125;29;20225;-68
2024/04/05 07:02:22;;;;;;;13.68;3.38;;;;;;;-146.04;100.00;56920.13;4907266;29;20229;-68
2024/04/05 07:04:48;;;;;;;8.23;3.47;;;;;;;-146.04;100.00;56920.13;4909773;29;20222;-67
2024/04/05 07:07:13;;;;;;;13.98;4.03;;;;;;;-146.04;100.00;56920.13;4916387;29;20673;-69
2024/04/05 07:09:38;;;;;;;9.00;3.33;;;;;;;-146.04;100.00;56920.13;4917273;29;20218;-68
2024/04/05 07:12:04;;;;;;;12.77;3.10;;;;;;;-146.04;100.00;56920.13;4914166;29;20582;-68
2024/04/05 07:14:30;;;;;;;10.48;2.72;;;;;;;-146.04;100.00;56920.13;4916103;29;20186;-68
2024/04/05 07:16:56;;;;;;;10.40;2.90;;;;;;;-146.04;100.00;56920.13;4929950;29;20209;-69
2024/04/05 07:19:23;;;;;;;7.50;2.97;;;;;;;-146.04;100.00;56920.13;4913709;29;20179;-69
2024/04/05 07:21:49;;;;;;;9.27;2.85;;;;;;;-146.04;100.00;56920.13;4903991;29;20218;-68
2024/04/05 07:24:15;;;;;;;7.05;2.50;;;;;;;-146.04;100.00;56920.13;4907354;29;20265;-68
2024/04/05 07:26:42;;;;;;;12.57;2.97;;;;;;;-146.04;100.00;56920.13;4909423;29;20214;-67
2024/04/05 07:29:09;;;;;;;10.00;3.08;;;;;;;-146.04;100.00;56920.13;4909918;29;20285;-67
2024/04/05 07:31:36;;;;;;;11.52;3.30;;;;;;;-146.04;100.00;56920.13;4915210;29;20193;-68
2024/04/05 07:34:05;;;;;;;10.52;2.85;;;;;;;-146.04;100.00;56920.13;4914281;29;20186;-67
2024/04/05 07:36:30;;;;;;;13.35;3.25;;;;;;;-146.04;100.00;56920.13;4909488;29;20190;-68
2024/04/05 07:38:56;;;;;;;8.02;3.53;;;;;;;-146.04;100.00;56920.13;4909595;29;20572;-68
2024/04/05 07:41:21;;;;;;;10.23;2.65;;;;;;;-146.04;100.00;56920.13;4910964;29;20213;-70
2024/04/05 07:43:49;;;;;;;8.82;2.90;;;;;;;-146.04;100.00;56920.13;4929915;29;20277;-68
2024/04/05 07:46:14;;;;;;;9.40;4.43;;;;;;;-146.04;100.00;56920.13;4914717;29;20218;-67
2024/04/05 07:48:39;;;;;;;7.55;3.58;;;;;;;-146.04;100.00;56920.13;4911601;29;20721;-69
2024/04/05 07:51:05;;;;;;;5.10;2.75;;;;;;;-146.04;100.00;56920.13;4913282;29;20601;-68
2024/04/05 07:53:30;;;;;;;11.60;3.30;;;;;;;-146.04;100.00;56920.13;4914188;29;20210;-70
2024/04/05 07:55:56;;;;;;;8.18;3.67;;;;;;;-146.04;100.00;56920.13;4913271;29;20217;-69
2024/04/05 07:58:21;;;;;;;11.73;2.88;;;;;;;-146.04;100.00;56920.13;4917909;29;20643;-69
2024/04/05 08:00:48;;;;;;;7.75;2.47;;;;;;;-146.04;100.00;56920.13;4917567;29;20666;-68
2024/04/05 08:03:14;;;;;;;10.23;2.72;;;;;;;-146.04;100.00;56920.13;4917112;29;20248;-69
2024/04/05 08:05:39;;;;;;;8.93;2.83;;;;;;;-146.04;100.00;56920.13;4914896;29;20277;-69
2024/04/05 08:08:05;;;;;;;8.80;2.50;;;;;;;-146.04;100.00;56920.13;4917509;29;20190;-69
2024/04/05 08:10:31;;;;;;;7.75;3.10;;;;;;;-146.04;100.00;56920.13;4914488;29;20190;-69
2024/04/05 08:12:57;;;;;;;3.72;1.95;;;;;;;-146.04;100.00;56920.13;4909796;29;20211;-68
2024/04/05 08:15:22;;;;;;;9.57;2.75;;;;;;;-146.04;100.00;56920.13;4895504;29;20290;-68
2024/04/05 08:17:48;;;;;;;6.57;2.15;;;;;;;-146.04;100.00;56920.13;4902442;29;20196;-69
2024/04/05 08:20:13;;;;;;;10.60;2.53;;;;;;;-146.04;100.00;56920.13;4897699;29;20254;-69
2024/04/05 08:22:38;;;;;;;5.15;2.40;;;;;;;-146.04;100.00;56920.13;4910834;29;21160;-68
2024/04/05 08:25:07;;;;;;;5.72;2.28;;;;;;;-146.04;100.00;56920.13;4896252;29;20209;-68
2024/04/05 08:27:33;;;;;;;12.88;3.10;;;;;;;-146.04;100.00;56920.13;4895891;29;20782;-68
2024/04/05 08:29:59;;;;;;;4.70;1.90;;;;;;;-146.04;100.00;56920.13;4895682;29;20219;-68
2024/04/05 08:32:24;;;;;;;9.52;2.83;;;;;;;-146.04;100.00;56920.13;4894954;29;20296;-68
2024/04/05 08:34:50;;;;;;;5.82;2.15;;;;;;;-146.04;100.00;56920.13;4895605;29;20225;-69
2024/04/05 08:37:18;;;;;;;4.03;1.77;;;;;;;-146.04;100.00;56920.13;4896779;29;20183;-68
2024/04/05 08:39:43;;;;;;;9.13;2.42;;;;;;;-146.04;100.00;56920.13;4897065;29;20190;-69
2024/04/05 08:42:13;;;;;;;6.30;2.25;;;;;;;-146.04;100.00;56920.13;4896682;29;20691;-68
2024/04/05 08:44:42;;;;;;;7.95;2.85;;;;;;;-146.04;100.00;56920.13;4896201;29;20613;-67
2024/04/05 08:47:10;;;;;;;8.00;2.05;;;;;;;-146.04;100.00;56920.13;4894869;29;21877;-68
2024/04/05 08:49:36;;;;;;;8.70;2.33;;;;;;;-146.04;100.00;56920.13;4897399;29;20198;-68
2024/04/05 08:52:02;;;;;;;8.75;2.60;;;;;;;-146.04;100.00;56920.13;4897135;29;20769;-66
2024/04/05 08:54:28;;;;;;;3.22;1.60;;;;;;;-146.04;100.00;56920.13;4917127;29;20214;-66
2024/04/05 08:56:58;;;;;;;5.05;1.90;;;;;;;-146.04;100.00;56920.13;4915344;29;20839;-66
2024/04/05 08:59:28;;;;;;;10.65;1.90;;;;;;;-146.04;100.00;56920.13;4898634;29;20764;-67
2024/04/05 09:01:57;;;;;;;6.10;1.63;;;;;;;-146.04;100.00;56920.13;4896874;29;20210;-68
2024/04/05 09:04:22;;;;;;;4.75;1.30;;;;;;;-146.04;100.00;56920.13;4894578;29;20186;-68
2024/04/05 09:06:48;;;;;;;5.68;1.75;;;;;;;-146.04;100.00;56920.13;4897733;29;20692;-68
2024/04/05 09:09:26;;;;;;;7.18;1.95;;;;;;;-146.04;100.00;56920.13;4895150;29;20183;-68
2024/04/05 09:12:01;;;;;;;6.70;1.73;;;;;;;-146.04;100.00;56920.13;4894067;29;20214;-68
2024/04/05 09:14:27;;;;;;;6.95;1.60;;;;;;;-146.04;100.00;56920.13;4893930;29;20889;-67
2024/04/05 09:16:54;;;;;;;3.50;1.90;;;;;;;-146.04;100.00;56920.13;4896349;29;20573;-67
2024/04/05 09:19:19;;;;;;;3.30;1.77;;;;;;;-146.04;100.00;56920.13;4896952;29;20254;-68
2024/04/05 09:21:45;;;;;;;2.40;1.60;;;;;;;-146.04;100.00;56920.13;4872900;29;20929;-69
2024/04/05 09:24:11;;;;;;;3.28;1.35;;;;;;;-146.04;100.00;56920.13;4898483;29;20206;-67
2024/04/05 09:26:36;;;;;;;6.63;1.67;;;;;;;-146.04;100.00;56920.13;4893900;29;20701;-68
2024/04/05 09:29:03;;;;;;;5.57;2.58;;;;;;;-146.04;100.00;56920.13;4895774;29;20210;-69
2024/04/05 09:31:29;;;;;;;6.35;2.00;;;;;;;-146.04;100.00;56920.13;4894599;29;20576;-69
2024/04/05 09:34:14;;;;;;;4.63;1.90;;;;;;;-146.04;100.00;56920.13;4894743;29;20222;-69
2024/04/05 09:36:40;;;;;;;3.88;2.45;;;;;;;-146.04;100.00;56920.13;4902093;29;20692;-67
2024/04/05 09:39:06;;;;;;;9.38;2.00;;;;;;;-146.04;100.00;56920.13;4896301;29;20608;-69
2024/04/05 09:41:33;;;;;;;6.32;2.30;;;;;;;-146.04;100.00;56920.13;4901707;29;20229;-66
2024/04/05 09:44:02;;;;;;;2.75;1.52;;;;;;;-146.04;100.00;56920.13;4896548;29;20190;-68
2024/04/05 09:46:27;;;;;;;8.65;1.88;;;;;;;-146.04;100.00;56920.13;4892667;29;20228;-68
2024/04/05 09:48:56;;;;;;;5.47;1.45;;;;;;;-146.04;100.00;56920.13;4910664;29;20678;-69
2024/04/05 09:51:26;;;;;;;5.03;1.38;;;;;;;-146.04;100.00;56920.13;4893327;29;20186;-68
2024/04/05 09:53:54;;;;;;;3.53;1.55;;;;;;;-146.04;100.00;56920.13;4894770;29;20178;-67
2024/04/05 09:56:23;;;;;;;5.18;1.52;;;;;;;-146.04;100.00;56920.13;4894057;29;20333;-68
2024/04/05 09:58:51;;;;;;;4.70;1.65;;;;;;;-146.04;100.00;56920.13;4894622;29;20201;-67
2024/04/05 10:01:17;;;;;;;4.18;1.27;;;;;;;-146.04;100.00;56920.13;4892958;29;20279;-68
2024/04/05 10:03:44;;;;;;;2.53;1.35;;;;;;;-146.04;100.00;56920.13;4898123;29;20601;-67
2024/04/05 10:06:17;;;;;;;3.08;1.45;;;;;;;-146.04;100.00;56920.13;4918654;29;20503;-66
2024/04/05 10:08:43;;;;;;;4.03;0.95;;;;;;;-146.04;100.00;56920.13;4893882;29;20189;-68
2024/04/05 10:11:12;;;;;;;3.92;1.27;;;;;;;-146.04;100.00;56920.13;4893390;29;20214;-69
2024/04/05 10:13:38;;;;;;;5.30;1.40;;;;;;;-146.04;100.00;56920.13;4892705;29;20229;-69
2024/04/05 10:16:04;;;;;;;8.18;2.15;;;;;;;-146.04;100.00;56920.13;4893628;29;20309;-66
2024/04/05 10:18:41;;;;;;;3.72;1.42;;;;;;;-146.04;100.00;56920.13;4897752;29;20505;-68
2024/04/05 10:21:08;;;;;;;4.60;1.25;;;;;;;-146.04;100.00;56920.13;4896414;29;20198;-68
2024/04/05 10:23:38;;;;;;;5.75;1.50;;;;;;;-146.04;100.00;56920.13;4895615;29;20228;-67
2024/04/05 10:26:07;;;;;;;3.20;1.40;;;;;;;-146.04;100.00;56920.13;4906203;29;20206;-69
2024/04/05 10:28:32;;;;;;;7.95;1.75;;;;;;;-146.04;100.00;56920.13;4894358;29;20186;-69
2024/04/05 10:31:01;;;;;;;4.43;1.60;;;;;;;-146.04;100.00;56920.13;4894995;29;20216;-69
2024/04/05 10:33:26;;;;;;;6.55;1.85;;;;;;;-146.04;100.00;56920.13;4893087;29;20209;-68
2024/04/05 10:35:57;;;;;;;2.78;1.33;;;;;;;-146.04;100.00;56920.13;4895836;29;20192;-68
2024/04/05 10:38:22;;;;;;;5.82;1.55;;;;;;;-146.04;100.00;56920.13;4894828;29;20592;-68
2024/04/05 10:41:01;;;;;;;5.70;1.77;;;;;;;-146.04;100.00;56920.13;4895907;29;20218;-67
2024/04/05 10:43:27;;;;;;;2.55;1.30;;;;;;;-146.04;100.00;56920.13;4897437;29;20628;-68
2024/04/05 10:45:57;;;;;;;3.58;1.50;;;;;;;-146.04;100.00;56920.13;4910598;29;20225;-68
2024/04/05 10:48:23;;;;;;;4.10;1.92;;;;;;;-146.04;100.00;56920.13;4897882;29;20643;-68
2024/04/05 10:50:49;;;;;;;4.82;1.80;;;;;;;-146.04;100.00;56920.13;4898435;29;20225;-68
2024/04/05 10:53:16;;;;;;;5.70;1.67;;;;;;;-146.04;100.00;56920.13;4900047;29;20321;-69
2024/04/05 10:55:41;;;;;;;5.13;1.70;;;;;;;-146.04;100.00;56920.13;4910235;29;20199;-66
2024/04/05 10:58:07;;;;;;;3.63;1.27;;;;;;;-146.04;100.00;56920.13;4896537;29;20206;-68
2024/04/05 11:00:33;;;;;;;3.50;1.65;;;;;;;-146.04;100.00;56920.13;4896370;29;20198;-68
2024/04/05 11:02:59;;;;;;;4.47;1.40;;;;;;;-146.04;100.00;56920.13;4897368;29;20274;-68